Time;durP1;ratioP1;P1;durP2;ratioP2;P2;SDS_P1;SDS_P2;PMS_P1;PMS_P2;Temp;Humidity;BMP_temperature;BMP_pressure;BME280_temperature;BME280_humidity;BME280_pressure;Samples;Min_cycle;Max_cycle;Signal;HPM_P1;HPM_P2
2022/10/04 00:01:00;;;;;;;23.67;4.03;;;;;;;;;;5035139;28;20017;-74
2022/10/04 00:03:28;;;;;;;25.08;4.43;;;;;;;;;;5034131;28;20072;-73
2022/10/04 00:05:56;;;;;;;19.25;3.65;;;;;;;;;;5033833;28;20404;-74
2022/10/04 00:08:28;;;;;;;24.85;5.78;;;;;;;;;;5033985;28;20030;-73
2022/10/04 00:11:02;;;;;;;12.25;3.78;;;;;;;;;;5034013;28;20029;-73
2022/10/04 00:13:28;;;;;;;16.30;3.35;;;;;;;;;;5034188;28;20033;-73
2022/10/04 00:15:54;;;;;;;20.92;4.15;;;;;;;;;;5034203;28;20040;-73
2022/10/04 00:18:27;;;;;;;29.52;4.60;;;;;;;;;;5036383;28;20022;-75
2022/10/04 00:20:53;;;;;;;24.30;4.00;;;;;;;;;;5034152;28;20098;-74
2022/10/04 00:25:46;;;;;;;22.58;4.20;;;;;;;;;;5068350;23;20064;-77
2022/10/04 00:28:19;;;;;;;16.25;3.60;;;;;;;;;;5043292;28;20025;-78
2022/10/04 00:30:54;;;;;;;14.68;3.63;;;;;;;;;;5051226;28;20021;-76
2022/10/04 00:33:35;;;;;;;23.35;3.70;;;;;;;;;;5052233;28;20053;-77
2022/10/04 00:36:21;;;;;;;13.73;3.50;;;;;;;;;;5013516;28;20030;-77
2022/10/04 00:39:02;;;;;;;23.65;4.15;;;;;;;;;;5013649;28;20026;-78
2022/10/04 00:41:29;;;;;;;16.42;4.22;;;;;;;;;;5013410;28;20018;-77
2022/10/04 00:43:56;;;;;;;16.40;3.35;;;;;;;;;;5013390;28;20024;-77
2022/10/04 00:46:24;;;;;;;17.08;3.90;;;;;;;;;;5013203;28;20085;-77
2022/10/04 00:48:50;;;;;;;20.58;5.20;;;;;;;;;;5013205;28;20105;-77
2022/10/04 00:51:22;;;;;;;17.02;3.80;;;;;;;;;;5013435;28;20466;-76
2022/10/04 00:53:56;;;;;;;13.75;3.65;;;;;;;;;;5019664;28;20053;-76
2022/10/04 00:56:42;;;;;;;19.55;3.50;;;;;;;;;;5011514;28;20062;-77
2022/10/04 00:59:16;;;;;;;15.13;3.40;;;;;;;;;;4985182;28;20033;-77
2022/10/04 01:01:44;;;;;;;15.40;3.78;;;;;;;;;;5013065;28;20032;-76
2022/10/04 01:04:33;;;;;;;10.73;3.20;;;;;;;;;;5012903;28;20032;-76
2022/10/04 01:07:02;;;;;;;9.93;3.10;;;;;;;;;;5012178;28;20030;-76
2022/10/04 01:09:29;;;;;;;14.35;3.97;;;;;;;;;;5012822;28;20030;-76
2022/10/04 01:12:06;;;;;;;14.55;3.72;;;;;;;;;;5013403;28;20072;-76
2022/10/04 01:14:52;;;;;;;22.73;4.50;;;;;;;;;;5011861;28;20026;-76
2022/10/04 01:17:18;;;;;;;18.05;3.72;;;;;;;;;;5012658;28;20096;-78
2022/10/04 01:19:52;;;;;;;15.57;4.32;;;;;;;;;;5013164;28;20029;-78
2022/10/04 01:22:29;;;;;;;21.63;4.25;;;;;;;;;;5018388;28;20018;-77
2022/10/04 01:24:56;;;;;;;12.52;3.47;;;;;;;;;;5021352;28;20479;-77
2022/10/04 01:27:37;;;;;;;21.73;4.15;;;;;;;;;;5019075;28;20044;-76
2022/10/04 01:30:06;;;;;;;20.73;4.40;;;;;;;;;;5019186;28;20029;-76
2022/10/04 01:32:32;;;;;;;23.88;5.10;;;;;;;;;;5012421;28;20018;-76
2022/10/04 01:34:58;;;;;;;23.80;4.38;;;;;;;;;;5012271;28;20110;-77
2022/10/04 01:37:25;;;;;;;20.33;4.75;;;;;;;;;;5012072;28;20057;-78
2022/10/04 01:39:51;;;;;;;18.73;5.15;;;;;;;;;;5012257;28;20502;-76
2022/10/04 01:42:21;;;;;;;25.27;5.40;;;;;;;;;;5012371;28;20044;-76
2022/10/04 01:44:54;;;;;;;21.83;5.18;;;;;;;;;;5010917;28;20382;-77
2022/10/04 01:47:24;;;;;;;24.70;5.43;;;;;;;;;;5012157;28;20549;-76
2022/10/04 01:49:51;;;;;;;20.80;5.30;;;;;;;;;;5012384;28;20022;-77
2022/10/04 01:52:21;;;;;;;23.48;5.65;;;;;;;;;;5012324;28;20029;-77
2022/10/04 01:54:58;;;;;;;22.27;5.63;;;;;;;;;;5014158;28;20113;-77
2022/10/04 01:57:29;;;;;;;29.23;5.72;;;;;;;;;;5019624;28;20113;-74
2022/10/04 01:59:56;;;;;;;19.45;5.28;;;;;;;;;;5034671;28;20105;-74
2022/10/04 02:02:27;;;;;;;26.38;5.78;;;;;;;;;;5034282;28;20028;-77
2022/10/04 02:04:55;;;;;;;21.50;5.18;;;;;;;;;;5037226;28;20028;-76
2022/10/04 02:07:21;;;;;;;19.80;4.97;;;;;;;;;;5034998;28;20033;-77
2022/10/04 02:09:49;;;;;;;14.40;4.80;;;;;;;;;;5033239;28;20025;-74
2022/10/04 02:12:17;;;;;;;17.77;5.07;;;;;;;;;;5028486;28;20030;-75
2022/10/04 02:14:47;;;;;;;28.77;5.45;;;;;;;;;;5033087;28;20093;-77
2022/10/04 02:17:16;;;;;;;21.48;5.28;;;;;;;;;;5033692;28;20506;-75
2022/10/04 02:19:43;;;;;;;18.70;5.20;;;;;;;;;;5025950;28;20069;-77
2022/10/04 02:22:10;;;;;;;23.95;4.43;;;;;;;;;;5016819;28;20168;-77
2022/10/04 02:24:41;;;;;;;20.65;4.25;;;;;;;;;;5018199;28;20042;-76
2022/10/04 02:27:07;;;;;;;18.50;4.80;;;;;;;;;;5015513;28;20033;-77
2022/10/04 02:29:33;;;;;;;19.63;5.18;;;;;;;;;;5015605;28;20033;-77
2022/10/04 02:34:45;;;;;;;;;;;;;;;;;;5016455;28;20520;-77
2022/10/04 02:37:11;;;;;;;24.45;4.18;;;;;;;;;;5013108;28;19996;-77
2022/10/04 02:39:42;;;;;;;21.67;4.45;;;;;;;;;;5015705;28;20022;-77
2022/10/04 02:42:27;;;;;;;24.92;4.85;;;;;;;;;;5015591;28;20014;-77
2022/10/04 02:44:59;;;;;;;12.60;4.03;;;;;;;;;;5018878;28;20084;-77
2022/10/04 02:47:30;;;;;;;16.20;3.80;;;;;;;;;;5019818;28;20446;-77
2022/10/04 02:50:00;;;;;;;14.85;3.90;;;;;;;;;;5019837;28;20092;-77
2022/10/04 02:52:30;;;;;;;15.70;3.80;;;;;;;;;;5003894;28;20375;-77
2022/10/04 02:55:05;;;;;;;19.33;4.22;;;;;;;;;;5016838;28;20029;-77
2022/10/04 02:57:33;;;;;;;13.57;4.03;;;;;;;;;;5007277;28;20118;-77
2022/10/04 03:00:19;;;;;;;12.60;3.92;;;;;;;;;;5018493;28;20026;-77
2022/10/04 03:03:04;;;;;;;20.85;4.40;;;;;;;;;;5005764;28;20113;-78
2022/10/04 03:05:30;;;;;;;;;;;;;;;;;;5020550;28;20036;-76
2022/10/04 03:07:56;;;;;;;14.55;4.13;;;;;;;;;;5017773;28;19905;-76
2022/10/04 03:10:22;;;;;;;20.35;4.35;;;;;;;;;;5015516;28;20077;-76
2022/10/04 03:12:52;;;;;;;16.63;4.00;;;;;;;;;;5015059;28;20485;-76
2022/10/04 03:15:18;;;;;;;12.63;3.95;;;;;;;;;;5015002;28;20037;-76
2022/10/04 03:17:44;;;;;;;20.30;3.83;;;;;;;;;;5014865;28;20041;-76
2022/10/04 03:20:14;;;;;;;21.00;4.40;;;;;;;;;;5014773;28;20022;-76
2022/10/04 03:22:43;;;;;;;14.27;3.95;;;;;;;;;;5014754;28;20471;-76
2022/10/04 03:25:14;;;;;;;14.38;3.90;;;;;;;;;;5014537;28;20030;-76
2022/10/04 03:27:42;;;;;;;17.58;3.25;;;;;;;;;;4995964;28;20112;-76
2022/10/04 03:30:12;;;;;;;16.13;3.88;;;;;;;;;;5014650;28;20450;-76
2022/10/04 03:32:38;;;;;;;16.60;3.67;;;;;;;;;;5014679;28;20069;-76
2022/10/04 03:35:06;;;;;;;23.30;3.63;;;;;;;;;;5013439;28;20064;-75
2022/10/04 03:37:35;;;;;;;17.63;3.60;;;;;;;;;;5013680;28;20133;-76
2022/10/04 03:40:01;;;;;;;19.25;3.65;;;;;;;;;;5013870;28;20018;-76
2022/10/04 03:42:31;;;;;;;15.32;3.05;;;;;;;;;;5013729;28;20033;-76
2022/10/04 03:45:00;;;;;;;16.17;3.58;;;;;;;;;;4996828;28;20030;-75
2022/10/04 03:47:29;;;;;;;14.40;3.40;;;;;;;;;;5016535;28;20511;-77
2022/10/04 03:49:57;;;;;;;11.90;3.35;;;;;;;;;;5013764;28;20108;-75
2022/10/04 03:52:23;;;;;;;11.93;3.28;;;;;;;;;;5014872;28;20102;-75
2022/10/04 03:54:51;;;;;;;16.25;3.50;;;;;;;;;;5019542;28;20435;-77
2022/10/04 03:57:17;;;;;;;16.40;3.28;;;;;;;;;;5014001;28;20502;-76
2022/10/04 03:59:43;;;;;;;14.32;3.70;;;;;;;;;;5013410;28;20022;-75
2022/10/04 04:02:18;;;;;;;22.58;4.22;;;;;;;;;;5014393;28;20072;-76
2022/10/04 04:04:47;;;;;;;19.00;3.78;;;;;;;;;;5015076;28;20467;-77
2022/10/04 04:07:20;;;;;;;15.18;3.75;;;;;;;;;;4996431;28;20030;-76
2022/10/04 04:09:56;;;;;;;17.13;3.58;;;;;;;;;;5014351;28;20382;-76
2022/10/04 04:12:33;;;;;;;13.15;3.53;;;;;;;;;;5014925;28;20033;-77
2022/10/04 04:15:00;;;;;;;19.48;4.10;;;;;;;;;;5014601;28;20022;-76
2022/10/04 04:17:26;;;;;;;17.55;4.20;;;;;;;;;;5013025;28;20022;-76
2022/10/04 04:19:52;;;;;;;21.15;7.63;;;;;;;;;;5014825;28;20021;-77
2022/10/04 04:22:19;;;;;;;16.80;4.90;;;;;;;;;;5015532;28;20077;-75
2022/10/04 04:24:46;;;;;;;16.10;4.22;;;;;;;;;;5014729;28;20032;-76
2022/10/04 04:27:13;;;;;;;19.67;5.10;;;;;;;;;;5014766;28;20104;-76
2022/10/04 04:29:45;;;;;;;15.95;4.43;;;;;;;;;;5016101;28;20030;-76
2022/10/04 04:32:17;;;;;;;15.93;4.30;;;;;;;;;;5005117;28;20022;-77
2022/10/04 04:34:56;;;;;;;13.65;3.80;;;;;;;;;;5021274;28;20034;-77
2022/10/04 04:37:23;;;;;;;17.42;4.40;;;;;;;;;;5018513;28;20042;-77
2022/10/04 04:39:56;;;;;;;16.90;3.75;;;;;;;;;;5017129;28;20487;-77
2022/10/04 04:42:28;;;;;;;18.42;4.38;;;;;;;;;;5020187;28;20044;-74
2022/10/04 04:44:59;;;;;;;14.60;3.90;;;;;;;;;;5021717;28;20077;-75
2022/10/04 04:47:28;;;;;;;20.55;4.47;;;;;;;;;;5008380;28;20475;-76
2022/10/04 04:49:55;;;;;;;28.17;4.78;;;;;;;;;;5033841;28;20030;-74
2022/10/04 04:52:24;;;;;;;21.50;5.05;;;;;;;;;;5015580;28;20057;-75
2022/10/04 04:54:51;;;;;;;25.88;4.70;;;;;;;;;;5028297;28;20049;-74
2022/10/04 04:57:18;;;;;;;19.75;4.75;;;;;;;;;;5021917;28;20391;-75
2022/10/04 04:59:45;;;;;;;16.15;3.78;;;;;;;;;;5016904;28;20416;-75
2022/10/04 05:02:27;;;;;;;20.88;4.22;;;;;;;;;;5013009;28;20490;-78
2022/10/04 05:05:12;;;;;;;20.85;4.18;;;;;;;;;;5013338;28;20022;-77
2022/10/04 05:07:38;;;;;;;20.15;3.90;;;;;;;;;;4996270;28;20548;-77
2022/10/04 05:10:18;;;;;;;17.00;4.65;;;;;;;;;;5021499;28;20077;-76
2022/10/04 05:12:45;;;;;;;20.60;5.20;;;;;;;;;;5021855;28;20029;-76
2022/10/04 05:15:12;;;;;;;30.67;6.43;;;;;;;;;;5025359;28;20022;-77
2022/10/04 05:17:38;;;;;;;29.52;7.05;;;;;;;;;;5028098;28;20072;-78
2022/10/04 05:20:04;;;;;;;23.38;5.22;;;;;;;;;;5029585;28;20026;-77
2022/10/04 05:22:30;;;;;;;19.95;5.15;;;;;;;;;;5031136;28;20037;-77
2022/10/04 05:25:01;;;;;;;15.57;5.30;;;;;;;;;;5029898;28;20044;-75
2022/10/04 05:27:32;;;;;;;26.33;5.03;;;;;;;;;;5013905;28;20029;-76
2022/10/04 05:30:04;;;;;;;18.35;4.78;;;;;;;;;;5014278;28;20479;-78
2022/10/04 05:32:33;;;;;;;24.08;5.13;;;;;;;;;;5018362;28;20034;-76
2022/10/04 05:35:00;;;;;;;21.80;5.68;;;;;;;;;;5021998;28;20076;-76
2022/10/04 05:37:25;;;;;;;19.52;4.45;;;;;;;;;;5002880;28;20033;-74
2022/10/04 05:39:57;;;;;;;17.65;5.10;;;;;;;;;;5003321;28;20026;-75
2022/10/04 05:42:26;;;;;;;23.95;5.25;;;;;;;;;;5015320;28;20026;-74
2022/10/04 05:44:54;;;;;;;17.67;5.65;;;;;;;;;;4999472;28;20605;-79
2022/10/04 05:47:25;;;;;;;20.55;5.15;;;;;;;;;;5018738;28;20030;-76
2022/10/04 05:49:54;;;;;;;25.15;6.65;;;;;;;;;;5016752;28;20055;-76
2022/10/04 05:52:32;;;;;;;17.85;5.72;;;;;;;;;;5014498;28;20022;-76
2022/10/04 05:55:15;;;;;;;19.17;5.95;;;;;;;;;;5018392;28;20086;-76
2022/10/04 05:57:53;;;;;;;16.95;6.47;;;;;;;;;;4995920;28;20026;-76
2022/10/04 06:00:20;;;;;;;24.23;6.10;;;;;;;;;;5013200;28;20109;-76
2022/10/04 06:03:09;;;;;;;29.98;7.10;;;;;;;;;;5014492;28;20026;-76
2022/10/04 06:05:38;;;;;;;24.77;6.63;;;;;;;;;;5013141;28;20160;-76
2022/10/04 06:08:08;;;;;;;24.38;7.00;;;;;;;;;;5013216;28;20474;-74
2022/10/04 06:11:04;;;;;;;21.25;6.68;;;;;;;;;;5013868;28;20069;-77
2022/10/04 06:13:36;;;;;;;18.60;6.82;;;;;;;;;;4996825;28;20106;-76
2022/10/04 06:16:16;;;;;;;27.95;7.03;;;;;;;;;;5014836;28;20026;-76
2022/10/04 06:18:54;;;;;;;23.42;6.65;;;;;;;;;;5013742;28;20033;-76
2022/10/04 06:21:29;;;;;;;24.33;6.82;;;;;;;;;;5013520;28;20032;-76
2022/10/04 06:24:04;;;;;;;20.27;6.97;;;;;;;;;;5012960;28;20479;-76
2022/10/04 06:26:39;;;;;;;28.52;7.80;;;;;;;;;;5021809;28;20058;-76
2022/10/04 06:29:08;;;;;;;26.10;7.88;;;;;;;;;;4998469;28;20714;-76
2022/10/04 06:31:34;;;;;;;27.98;8.32;;;;;;;;;;4996884;28;20102;-75
2022/10/04 06:34:05;;;;;;;24.27;6.65;;;;;;;;;;5016306;28;20062;-76
2022/10/04 06:36:32;;;;;;;28.08;7.43;;;;;;;;;;5017862;28;20069;-75
2022/10/04 06:39:22;;;;;;;23.75;7.88;;;;;;;;;;5018460;28;20022;-75
2022/10/04 06:41:51;;;;;;;24.85;7.78;;;;;;;;;;5016253;28;20022;-76
2022/10/04 06:44:27;;;;;;;23.27;6.90;;;;;;;;;;5024355;28;20029;-74
2022/10/04 06:47:12;;;;;;;33.22;7.85;;;;;;;;;;5019690;28;20057;-75
2022/10/04 06:49:45;;;;;;;27.40;7.93;;;;;;;;;;5018318;28;20117;-75
2022/10/04 06:52:24;;;;;;;31.52;7.78;;;;;;;;;;5019415;28;20109;-75
2022/10/04 06:55:02;;;;;;;21.73;7.10;;;;;;;;;;5016309;28;20036;-78
2022/10/04 06:57:47;;;;;;;26.67;6.90;;;;;;;;;;5017180;28;20022;-73
2022/10/04 07:00:21;;;;;;;25.58;8.45;;;;;;;;;;5023721;28;20389;-74
2022/10/04 07:02:50;;;;;;;32.17;7.50;;;;;;;;;;5021591;28;20018;-76
2022/10/04 07:05:29;;;;;;;21.70;7.30;;;;;;;;;;5023419;28;20041;-73
2022/10/04 07:08:05;;;;;;;24.90;7.63;;;;;;;;;;5012507;28;20029;-73
2022/10/04 07:10:40;;;;;;;27.05;7.80;;;;;;;;;;5030389;28;20017;-76
2022/10/04 07:13:26;;;;;;;25.40;8.40;;;;;;;;;;5027667;28;20105;-75
2022/10/04 07:15:58;;;;;;;27.55;8.65;;;;;;;;;;4984922;28;20041;-76
2022/10/04 07:18:26;;;;;;;19.20;7.18;;;;;;;;;;5023541;28;20026;-77
2022/10/04 07:20:58;;;;;;;22.23;7.05;;;;;;;;;;5025692;28;20018;-77
2022/10/04 07:23:36;;;;;;;25.52;7.93;;;;;;;;;;5033289;28;20025;-77
2022/10/04 07:26:04;;;;;;;23.77;7.93;;;;;;;;;;5036042;28;20030;-77
2022/10/04 07:31:26;;;;;;;16.02;6.60;;;;;;;;;;5021333;28;20103;-75
2022/10/04 07:33:56;;;;;;;23.58;7.65;;;;;;;;;;5002270;28;20021;-75
2022/10/04 07:36:26;;;;;;;24.05;8.07;;;;;;;;;;5021842;28;20479;-75
2022/10/04 07:38:59;;;;;;;21.20;6.95;;;;;;;;;;5004516;28;20033;-74
2022/10/04 07:41:28;;;;;;;25.52;7.95;;;;;;;;;;5016579;28;20041;-79
2022/10/04 07:43:56;;;;;;;27.42;7.72;;;;;;;;;;5021278;28;20028;-76
2022/10/04 07:46:28;;;;;;;28.88;9.60;;;;;;;;;;5017460;28;20433;-75
2022/10/04 07:49:01;;;;;;;30.65;8.27;;;;;;;;;;4998926;28;20133;-75
2022/10/04 07:51:27;;;;;;;23.20;8.10;;;;;;;;;;4996432;28;20140;-75
2022/10/04 07:53:55;;;;;;;27.48;8.02;;;;;;;;;;5013641;28;20314;-75
2022/10/04 07:56:30;;;;;;;32.22;8.40;;;;;;;;;;5014113;28;20096;-76
2022/10/04 07:59:12;;;;;;;28.00;8.25;;;;;;;;;;5023368;28;20101;-76
2022/10/04 08:01:48;;;;;;;30.00;7.55;;;;;;;;;;5014773;28;20416;-76
2022/10/04 08:04:27;;;;;;;25.08;7.65;;;;;;;;;;5014597;28;20093;-77
2022/10/04 08:07:04;;;;;;;25.52;7.15;;;;;;;;;;5014199;28;20368;-78
2022/10/04 08:09:33;;;;;;;23.02;7.55;;;;;;;;;;5014066;28;20029;-77
2022/10/04 08:12:05;;;;;;;28.77;7.82;;;;;;;;;;5014417;28;20037;-76
2022/10/04 08:14:43;;;;;;;28.23;7.53;;;;;;;;;;5013064;28;20032;-77
2022/10/04 08:17:10;;;;;;;27.50;7.63;;;;;;;;;;5015830;28;20095;-76
2022/10/04 08:19:54;;;;;;;30.35;7.03;;;;;;;;;;4999982;28;20033;-76
2022/10/04 08:22:28;;;;;;;26.23;8.25;;;;;;;;;;5013481;28;20038;-77
2022/10/04 08:25:13;;;;;;;26.55;8.15;;;;;;;;;;4997293;28;20038;-76
2022/10/04 08:27:39;;;;;;;24.90;8.38;;;;;;;;;;4998196;28;20029;-76
2022/10/04 08:30:16;;;;;;;32.40;8.30;;;;;;;;;;5015513;28;20026;-77
2022/10/04 08:32:52;;;;;;;26.80;7.55;;;;;;;;;;4996732;28;20030;-76
2022/10/04 08:35:22;;;;;;;23.35;7.53;;;;;;;;;;4997798;28;20029;-77
2022/10/04 08:38:03;;;;;;;29.65;8.02;;;;;;;;;;4995980;28;20115;-76
2022/10/04 08:40:31;;;;;;;19.00;6.53;;;;;;;;;;5013744;28;20022;-77
2022/10/04 08:43:12;;;;;;;24.10;7.32;;;;;;;;;;5013429;28;20053;-76
2022/10/04 08:45:57;;;;;;;22.65;6.80;;;;;;;;;;5016421;28;20060;-76
2022/10/04 08:48:46;;;;;;;26.45;7.38;;;;;;;;;;5015250;28;20026;-76
2022/10/04 08:51:15;;;;;;;25.02;6.90;;;;;;;;;;5002803;28;20029;-76
2022/10/04 08:53:52;;;;;;;25.23;7.90;;;;;;;;;;5014489;28;20022;-77
2022/10/04 08:56:42;;;;;;;32.42;8.15;;;;;;;;;;5014073;28;20037;-76
2022/10/04 08:59:08;;;;;;;27.48;8.18;;;;;;;;;;5014271;28;20026;-76
2022/10/04 09:01:53;;;;;;;25.20;6.97;;;;;;;;;;5013240;28;20030;-76
2022/10/04 09:04:39;;;;;;;24.55;7.28;;;;;;;;;;5013201;28;20033;-78
2022/10/04 09:07:20;;;;;;;27.20;7.85;;;;;;;;;;5019448;28;20041;-75
2022/10/04 09:09:52;;;;;;;25.33;7.53;;;;;;;;;;5021419;28;20030;-77
2022/10/04 09:12:43;;;;;;;29.02;8.70;;;;;;;;;;5012082;28;20022;-76
2022/10/04 09:15:30;;;;;;;30.85;7.55;;;;;;;;;;5012027;28;20022;-75
2022/10/04 09:18:02;;;;;;;30.48;8.40;;;;;;;;;;4993974;28;20022;-78
2022/10/04 09:20:32;;;;;;;32.78;8.70;;;;;;;;;;5012274;28;20045;-77
2022/10/04 09:23:13;;;;;;;36.05;8.90;;;;;;;;;;4994232;28;20032;-75
2022/10/04 09:25:47;;;;;;;31.60;7.78;;;;;;;;;;4993916;28;20053;-76
2022/10/04 09:28:23;;;;;;;21.63;7.47;;;;;;;;;;5012353;28;20121;-77
2022/10/04 09:30:52;;;;;;;29.55;6.95;;;;;;;;;;5012497;28;20082;-77
2022/10/04 09:33:28;;;;;;;37.53;8.43;;;;;;;;;;5012369;28;20026;-77
2022/10/04 09:35:54;;;;;;;26.52;8.52;;;;;;;;;;4994703;28;20026;-76
2022/10/04 09:38:20;;;;;;;24.70;7.25;;;;;;;;;;5012485;28;20030;-79
2022/10/04 09:41:00;;;;;;;26.33;7.47;;;;;;;;;;5014064;28;20065;-77
2022/10/04 09:43:36;;;;;;;28.67;8.45;;;;;;;;;;5017686;28;20382;-80
2022/10/04 09:46:06;;;;;;;25.70;7.80;;;;;;;;;;5031580;28;20038;-78
2022/10/04 09:48:36;;;;;;;28.38;7.35;;;;;;;;;;5028992;28;20022;-75
2022/10/04 09:51:18;;;;;;;27.35;7.03;;;;;;;;;;5032767;28;20045;-75
2022/10/04 09:53:52;;;;;;;23.80;7.15;;;;;;;;;;5036371;28;20081;-79
2022/10/04 09:56:18;;;;;;;;;;;;;;;;;;5014194;28;20034;-79
2022/10/04 09:58:57;;;;;;;30.33;7.43;;;;;;;;;;5029106;28;20052;-76
2022/10/04 10:01:32;;;;;;;32.65;8.48;;;;;;;;;;5030144;28;20044;-77
2022/10/04 10:04:04;;;;;;;30.42;7.28;;;;;;;;;;5025797;28;20030;-76
2022/10/04 10:06:30;;;;;;;23.33;8.13;;;;;;;;;;5017522;28;20032;-76
2022/10/04 10:09:02;;;;;;;28.13;7.32;;;;;;;;;;5013745;28;20121;-77
2022/10/04 10:14:51;;;;;;;22.58;7.07;;;;;;;;;;5011974;28;20031;-78
2022/10/04 10:17:39;;;;;;;31.98;7.25;;;;;;;;;;5016534;28;20109;-76
2022/10/04 10:20:22;;;;;;;29.13;6.13;;;;;;;;;;5016546;28;20022;-76
2022/10/04 10:22:51;;;;;;;23.88;6.85;;;;;;;;;;5017491;28;20172;-75
2022/10/04 10:25:21;;;;;;;38.78;7.00;;;;;;;;;;4998959;28;20037;-75
2022/10/04 10:27:53;;;;;;;28.17;6.60;;;;;;;;;;5016817;28;20030;-76
2022/10/04 10:30:22;;;;;;;20.20;5.45;;;;;;;;;;5015997;28;20476;-77
2022/10/04 10:32:51;;;;;;;26.13;5.15;;;;;;;;;;5016300;28;20041;-76
2022/10/04 10:35:17;;;;;;;26.15;5.05;;;;;;;;;;5016623;28;20509;-75
2022/10/04 10:37:50;;;;;;;21.05;5.57;;;;;;;;;;5017663;28;20034;-75
2022/10/04 10:40:39;;;;;;;24.57;5.60;;;;;;;;;;5000726;28;20094;-76
2022/10/04 10:43:14;;;;;;;24.35;5.53;;;;;;;;;;5015968;28;20057;-77
2022/10/04 10:45:44;;;;;;;25.02;5.78;;;;;;;;;;5015446;28;20014;-75
2022/10/04 10:48:25;;;;;;;21.05;5.00;;;;;;;;;;5015445;28;20356;-77
2022/10/04 10:51:14;;;;;;;19.02;5.50;;;;;;;;;;5015629;28;20025;-78
2022/10/04 10:53:44;;;;;;;21.77;4.65;;;;;;;;;;5015324;28;20200;-76
2022/10/04 10:56:19;;;;;;;23.35;5.45;;;;;;;;;;4997916;28;20040;-77
2022/10/04 10:58:45;;;;;;;22.85;5.15;;;;;;;;;;5015667;28;20052;-76
2022/10/04 11:01:29;;;;;;;27.40;6.40;;;;;;;;;;5015599;28;20080;-75
2022/10/04 11:03:55;;;;;;;;;;;;;;;;;;5015726;28;20030;-75
2022/10/04 11:06:39;;;;;;;19.55;5.22;;;;;;;;;;5014792;28;19951;-75
2022/10/04 11:09:19;;;;;;;24.60;5.32;;;;;;;;;;5015784;28;20554;-79
2022/10/04 11:11:45;;;;;;;24.50;5.72;;;;;;;;;;5015117;28;20364;-74
2022/10/04 11:14:37;;;;;;;21.33;5.70;;;;;;;;;;5015060;28;20029;-77
2022/10/04 11:17:09;;;;;;;18.80;5.00;;;;;;;;;;4975098;28;20049;-75
2022/10/04 11:19:41;;;;;;;23.52;4.78;;;;;;;;;;4997656;28;20085;-77
2022/10/04 11:22:28;;;;;;;23.10;5.03;;;;;;;;;;4997288;28;20030;-77
2022/10/04 11:25:00;;;;;;;15.50;3.63;;;;;;;;;;5014665;28;20490;-77
2022/10/04 11:27:27;;;;;;;15.43;4.03;;;;;;;;;;5014747;28;20056;-76
2022/10/04 11:30:08;;;;;;;23.95;4.22;;;;;;;;;;5014895;28;20044;-76
2022/10/04 11:32:52;;;;;;;19.40;4.25;;;;;;;;;;4997471;28;20116;-76
2022/10/04 11:35:35;;;;;;;19.52;3.60;;;;;;;;;;5014925;28;20030;-77
2022/10/04 11:38:21;;;;;;;17.90;4.20;;;;;;;;;;5014562;28;20033;-78
2022/10/04 11:40:47;;;;;;;17.33;3.60;;;;;;;;;;5014731;28;20018;-77
2022/10/04 11:43:24;;;;;;;24.77;4.88;;;;;;;;;;4996954;28;20030;-76
2022/10/04 11:46:06;;;;;;;18.88;4.25;;;;;;;;;;5015172;28;20133;-77
2022/10/04 11:48:31;;;;;;;18.05;3.88;;;;;;;;;;5014836;28;20034;-78
2022/10/04 11:51:01;;;;;;;23.15;4.00;;;;;;;;;;5014489;28;20549;-76
2022/10/04 11:53:38;;;;;;;21.35;4.22;;;;;;;;;;5013839;28;20558;-76
2022/10/04 11:56:04;;;;;;;20.42;3.50;;;;;;;;;;5013753;28;20107;-76
2022/10/04 11:58:47;;;;;;;14.02;3.55;;;;;;;;;;5013867;28;20025;-77
2022/10/04 12:01:32;;;;;;;11.45;3.22;;;;;;;;;;5014251;28;20022;-75
2022/10/04 12:04:08;;;;;;;17.48;3.60;;;;;;;;;;5013795;28;20475;-76
2022/10/04 12:06:50;;;;;;;12.85;3.22;;;;;;;;;;5014334;28;20034;-77
2022/10/04 12:09:25;;;;;;;15.38;2.92;;;;;;;;;;5014202;28;20376;-76
2022/10/04 12:14:41;;;;;;;19.15;3.33;;;;;;;;;;5013737;28;20064;-78
2022/10/04 12:17:10;;;;;;;17.42;3.85;;;;;;;;;;5013541;28;20022;-76
2022/10/04 12:19:51;;;;;;;15.05;3.55;;;;;;;;;;5014283;28;20026;-76
2022/10/04 12:22:26;;;;;;;14.80;3.40;;;;;;;;;;5013721;28;20079;-76
2022/10/04 12:25:11;;;;;;;22.42;3.30;;;;;;;;;;5046085;23;20042;-75
2022/10/04 12:27:56;;;;;;;15.75;3.35;;;;;;;;;;5035266;28;20398;-75
2022/10/04 12:30:25;;;;;;;14.77;3.17;;;;;;;;;;5037379;28;20029;-75
2022/10/04 12:33:06;;;;;;;14.07;3.53;;;;;;;;;;5037855;28;20029;-74
2022/10/04 12:35:48;;;;;;;13.13;3.45;;;;;;;;;;5038147;28;20030;-75
2022/10/04 12:38:33;;;;;;;19.70;3.45;;;;;;;;;;5033809;28;20336;-73
2022/10/04 12:41:17;;;;;;;13.32;3.50;;;;;;;;;;5036475;28;20030;-74
2022/10/04 12:44:03;;;;;;;10.60;3.05;;;;;;;;;;5033761;28;20104;-74
2022/10/04 12:46:51;;;;;;;16.15;3.80;;;;;;;;;;5015387;28;20065;-74
2022/10/04 12:49:36;;;;;;;12.05;3.80;;;;;;;;;;5033052;28;20021;-74
2022/10/04 12:52:02;;;;;;;;;;;;;;;;;;5034505;28;20022;-74
2022/10/04 12:54:37;;;;;;;18.95;3.45;;;;;;;;;;5041683;28;19911;-75
2022/10/04 12:57:23;;;;;;;11.82;3.63;;;;;;;;;;5035529;28;20033;-74
2022/10/04 12:59:58;;;;;;;15.95;3.03;;;;;;;;;;5037921;28;20117;-73
2022/10/04 13:02:24;;;;;;;14.52;4.53;;;;;;;;;;5034833;28;20022;-74
2022/10/04 13:05:14;;;;;;;13.38;3.08;;;;;;;;;;5033241;28;20429;-74
2022/10/04 13:07:42;;;;;;;18.02;5.47;;;;;;;;;;5032501;28;20080;-74
2022/10/04 13:10:14;;;;;;;13.40;3.55;;;;;;;;;;5032366;28;20025;-75
2022/10/04 13:13:02;;;;;;;18.58;3.70;;;;;;;;;;5032008;28;20029;-74
2022/10/04 13:15:30;;;;;;;11.20;3.10;;;;;;;;;;5033607;28;20045;-73
2022/10/04 13:18:01;;;;;;;12.85;2.97;;;;;;;;;;5032314;28;20149;-75
2022/10/04 13:20:38;;;;;;;11.10;2.92;;;;;;;;;;5031978;28;20471;-74
2022/10/04 13:23:07;;;;;;;12.25;3.05;;;;;;;;;;5032545;28;20033;-74
2022/10/04 13:25:52;;;;;;;13.00;3.20;;;;;;;;;;5032358;28;20325;-75
2022/10/04 13:28:30;;;;;;;17.55;3.80;;;;;;;;;;5031975;28;20025;-75
2022/10/04 13:30:57;;;;;;;11.70;2.97;;;;;;;;;;5031703;28;20494;-75
2022/10/04 13:33:37;;;;;;;10.50;2.88;;;;;;;;;;5032756;28;20029;-76
2022/10/04 13:36:05;;;;;;;14.32;2.42;;;;;;;;;;5032526;28;20029;-75
2022/10/04 13:38:41;;;;;;;21.20;3.42;;;;;;;;;;5036571;28;20032;-75
2022/10/04 13:41:27;;;;;;;14.93;3.08;;;;;;;;;;5016197;28;20112;-75
2022/10/04 13:43:53;;;;;;;15.38;2.85;;;;;;;;;;5025679;28;20040;-75
2022/10/04 13:46:25;;;;;;;12.23;2.67;;;;;;;;;;5036756;28;20108;-76
2022/10/04 13:48:51;;;;;;;13.55;2.95;;;;;;;;;;5035537;28;20083;-75
2022/10/04 13:51:32;;;;;;;8.55;2.33;;;;;;;;;;5037328;28;20496;-75
2022/10/04 13:57:06;;;;;;;9.43;2.70;;;;;;;;;;5037418;28;20051;-75
2022/10/04 13:59:40;;;;;;;13.35;3.08;;;;;;;;;;5038394;28;20064;-76
2022/10/04 14:02:25;;;;;;;15.00;2.90;;;;;;;;;;5024548;28;20063;-75
2022/10/04 14:04:57;;;;;;;11.75;3.30;;;;;;;;;;5037118;28;20026;-74
2022/10/04 14:07:33;;;;;;;11.60;2.60;;;;;;;;;;5036580;28;20486;-74
2022/10/04 14:10:08;;;;;;;12.15;2.40;;;;;;;;;;5028667;28;20037;-77
2022/10/04 14:12:41;;;;;;;14.60;2.80;;;;;;;;;;5044163;28;20029;-76
2022/10/04 14:15:16;;;;;;;11.25;2.85;;;;;;;;;;5022686;28;20037;-76
2022/10/04 14:17:42;;;;;;;16.38;4.07;;;;;;;;;;5019363;28;20026;-75
2022/10/04 14:20:23;;;;;;;12.70;2.90;;;;;;;;;;5042054;28;20013;-78
2022/10/04 14:23:10;;;;;;;10.27;2.58;;;;;;;;;;5029385;28;20026;-74
2022/10/04 14:25:52;;;;;;;7.70;2.30;;;;;;;;;;5051221;28;20044;-76
2022/10/04 14:28:37;;;;;;;14.18;2.72;;;;;;;;;;5052114;28;20025;-76
2022/10/04 14:31:23;;;;;;;12.80;2.90;;;;;;;;;;5028729;28;20022;-76
2022/10/04 14:33:58;;;;;;;15.90;3.08;;;;;;;;;;5024884;28;20052;-77
2022/10/04 14:36:39;;;;;;;19.35;4.25;;;;;;;;;;5022172;28;20033;-78
2022/10/04 14:39:19;;;;;;;15.70;2.90;;;;;;;;;;5039871;28;20083;-73
2022/10/04 14:42:03;;;;;;;13.25;3.17;;;;;;;;;;5037143;28;20162;-74
2022/10/04 14:44:45;;;;;;;11.57;2.85;;;;;;;;;;5036709;28;20467;-74
2022/10/04 14:47:12;;;;;;;15.02;2.65;;;;;;;;;;5038320;28;20052;-73
2022/10/04 14:49:38;;;;;;;12.60;3.05;;;;;;;;;;5039389;28;20025;-74
2022/10/04 14:52:22;;;;;;;13.82;3.28;;;;;;;;;;5023105;28;20029;-74
2022/10/04 14:54:53;;;;;;;14.48;3.00;;;;;;;;;;5036998;28;20030;-75
2022/10/04 14:57:21;;;;;;;15.07;2.85;;;;;;;;;;5039510;28;20021;-76
2022/10/04 15:00:00;;;;;;;13.32;2.67;;;;;;;;;;5041090;28;20100;-75
2022/10/04 15:02:32;;;;;;;11.23;2.80;;;;;;;;;;5053630;28;20077;-74
2022/10/04 15:05:22;;;;;;;14.68;5.63;;;;;;;;;;5045754;28;20060;-74
2022/10/04 15:07:50;;;;;;;10.02;2.60;;;;;;;;;;4992131;28;20033;-73
2022/10/04 15:10:18;;;;;;;11.48;2.40;;;;;;;;;;5041640;28;20033;-74
2022/10/04 15:12:57;;;;;;;13.95;4.32;;;;;;;;;;5046373;28;20026;-74
2022/10/04 15:15:43;;;;;;;8.05;2.78;;;;;;;;;;5040040;28;20534;-74
2022/10/04 15:18:30;;;;;;;13.27;2.72;;;;;;;;;;4997663;28;20610;-76
2022/10/04 15:21:00;;;;;;;14.45;3.20;;;;;;;;;;5035276;28;20510;-74
2022/10/04 15:23:46;;;;;;;17.52;2.83;;;;;;;;;;5039202;28;20075;-74
2022/10/04 15:26:18;;;;;;;11.93;2.30;;;;;;;;;;5034411;28;20028;-72